Emery, Iowa
Current Conditions -  °F | °C
As of 11:53 PM on Friday 28 Nov 2014 (Local Time) from KMCW Reporting Station
Haze Haze  
Wind Chill: 14°   Ceiling: Unl
Heat Index: 24°   Visibility: 5mi
Dew Point: 22°   Wind: 10mph
Humidity: 91%   Direction: 130°SE
Pressure: 29.66"   Gusts: NA
Location:  43.1451°N, 93.1385°W
Report Text: KMCW 290553Z AUTO 13009KT 5SM BR CLR M04/M06 A2966 RMK AO2 SLP055 T10441056 11039 21050 410331122 58027
Loading
Personal Weather Stations






























Interactive Weather Map New forecast layout! Learn more

10-Day Weather Forecast

Advertisements
Track Severe Weather on mobile